Christchurch, United Kingdom
Current Conditions -  °F | °C
As of 7:20 PM on Thursday 23 Oct 2014 (Local Time) from EGHH Reporting Station
Light Rain Light Rain  
Wind Chill: 15°   Ceiling: 1300
Heat Index: 15°   Visibility: 5mi
Dew Point: 14°   Wind: 9mph
Humidity: 94%   Direction: 220°SW
Pressure: 30.06"   Gusts: NA
Location:  50.77°N, 1.78°W
Report Text: EGHH 231820Z 22008KT 8000 -RADZ FEW008 BKN013 15/14 Q1018
Loading
Personal Weather Stations






























Interactive Weather Map
Tropical Storm Tracking
New forecast layout! Learn more

10-Day Weather Forecast

Advertisements
Track Severe Weather on mobile